createdAt,value
2023-04-14T00:00:33.548Z,16.10
2023-04-14T00:03:02.972Z,18.65
2023-04-14T00:05:37.448Z,24.42
2023-04-14T00:08:06.742Z,16.77
2023-04-14T00:10:36.257Z,17.98
2023-04-14T00:13:07.993Z,15.65
2023-04-14T00:15:37.804Z,20.95
2023-04-14T00:18:06.833Z,18.00
2023-04-14T00:20:35.965Z,16.67
2023-04-14T00:23:04.485Z,18.23
2023-04-14T00:25:33.356Z,17.20
2023-04-14T00:28:02.005Z,15.77
2023-04-14T00:30:33.188Z,26.00
2023-04-14T00:33:02.035Z,22.15
2023-04-14T00:35:30.967Z,12.77
2023-04-14T00:38:00.251Z,14.85
2023-04-14T00:40:31.784Z,15.43
2023-04-14T00:43:01.422Z,28.58
2023-04-14T00:45:33.477Z,19.33
2023-04-14T00:48:04.509Z,19.67
2023-04-14T00:50:37.275Z,13.70
2023-04-14T00:53:07.290Z,17.15
2023-04-14T00:55:37.733Z,18.08
2023-04-14T00:58:07.554Z,27.33
2023-04-14T01:00:38.310Z,15.82
2023-04-14T01:03:09.824Z,19.35
2023-04-14T01:05:40.276Z,17.40
2023-04-14T01:08:10.678Z,18.75
2023-04-14T01:10:52.062Z,15.75
2023-04-14T01:13:33.814Z,22.55
2023-04-14T01:16:13.237Z,14.88
2023-04-14T01:18:53.521Z,23.27
2023-04-14T01:21:29.008Z,23.25
2023-04-14T01:24:51.011Z,15.30
2023-04-14T01:27:49.334Z,16.63
2023-04-14T01:30:43.165Z,24.40
2023-04-14T01:33:24.280Z,14.57
2023-04-14T01:35:59.176Z,21.67
2023-04-14T01:38:36.574Z,11.20
2023-04-14T01:41:10.518Z,20.63
2023-04-14T01:43:42.405Z,14.77
2023-04-14T01:46:15.817Z,27.05
2023-04-14T01:48:47.345Z,17.90
2023-04-14T01:51:20.271Z,19.63
2023-04-14T01:53:51.968Z,19.25
2023-04-14T01:56:24.505Z,15.18
2023-04-14T01:58:57.012Z,11.25
2023-04-14T02:01:29.222Z,19.38
2023-04-14T02:04:01.454Z,21.50
2023-04-14T02:06:34.093Z,12.88
2023-04-14T02:09:05.959Z,19.00
2023-04-14T02:11:36.028Z,15.07
2023-04-14T02:14:21.738Z,17.08
2023-04-14T02:16:54.234Z,19.25
2023-04-14T02:19:27.713Z,14.00
2023-04-14T02:22:00.015Z,16.38
2023-04-14T02:24:31.326Z,22.67
2023-04-14T02:27:06.973Z,22.50
2023-04-14T02:29:39.569Z,13.80
2023-04-14T02:32:14.144Z,17.77
2023-04-14T02:34:56.180Z,24.15
2023-04-14T02:37:31.609Z,15.10
2023-04-14T02:40:08.016Z,16.77
2023-04-14T02:42:44.152Z,22.00
2023-04-14T02:45:20.838Z,18.70
2023-04-14T02:48:00.138Z,14.88
2023-04-14T02:50:31.808Z,15.10
2023-04-14T02:53:02.246Z,17.90
2023-04-14T02:55:34.288Z,18.30
2023-04-14T02:58:04.810Z,16.50
2023-04-14T03:00:34.500Z,14.20
2023-04-14T03:03:16.609Z,26.10
2023-04-14T03:05:56.757Z,25.17
2023-04-14T03:08:28.840Z,17.35
2023-04-14T03:10:58.685Z,15.70
2023-04-14T03:13:30.132Z,18.05
2023-04-14T03:16:02.462Z,19.00
2023-04-14T03:18:40.488Z,24.40
2023-04-14T03:21:12.289Z,21.80
2023-04-14T03:23:42.579Z,17.77
2023-04-14T03:26:14.555Z,23.42
2023-04-14T03:28:46.378Z,24.60
2023-04-14T03:31:19.074Z,22.92
2023-04-14T03:33:55.658Z,18.30
2023-04-14T03:36:32.566Z,24.40
2023-04-14T03:39:05.225Z,21.52
2023-04-14T03:41:37.832Z,25.40
2023-04-14T03:44:16.371Z,28.35
2023-04-14T03:46:47.557Z,27.15
2023-04-14T03:49:20.504Z,30.25
2023-04-14T03:51:53.748Z,25.23
2023-04-14T03:54:25.667Z,35.03
2023-04-14T03:56:57.485Z,30.83
2023-04-14T03:59:29.985Z,31.70
2023-04-14T04:02:05.389Z,29.27
2023-04-14T04:04:39.058Z,23.70
2023-04-14T04:07:13.354Z,29.33
2023-04-14T04:09:42.909Z,39.80
2023-04-14T04:12:12.808Z,29.02
2023-04-14T04:14:43.813Z,23.85
2023-04-14T04:17:20.025Z,26.08
2023-04-14T04:19:51.960Z,29.58
2023-04-14T04:22:25.329Z,30.92
2023-04-14T04:24:56.617Z,33.60
2023-04-14T04:27:28.478Z,29.85
2023-04-14T04:29:58.810Z,32.45
2023-04-14T04:32:29.489Z,38.63
2023-04-14T04:35:00.189Z,27.40
2023-04-14T04:37:32.184Z,35.55
2023-04-14T04:40:01.094Z,29.50
2023-04-14T04:42:29.984Z,37.97
2023-04-14T04:44:58.973Z,28.52
2023-04-14T04:47:28.910Z,42.88
2023-04-14T04:49:58.723Z,29.13
2023-04-14T04:52:31.279Z,36.13
2023-04-14T04:54:59.933Z,41.70
2023-04-14T04:57:30.093Z,44.30
2023-04-14T04:59:59.862Z,48.58
2023-04-14T05:02:31.642Z,37.55
2023-04-14T05:05:04.467Z,30.17
2023-04-14T05:07:36.811Z,33.13
2023-04-14T05:10:06.595Z,29.52
2023-04-14T05:12:35.084Z,34.80
2023-04-14T05:15:11.065Z,41.67
2023-04-14T05:17:41.535Z,38.67
2023-04-14T05:20:12.395Z,31.52
2023-04-14T05:22:44.305Z,41.78
2023-04-14T05:25:14.465Z,27.05
2023-04-14T05:27:43.434Z,34.08
2023-04-14T05:30:17.600Z,32.53
2023-04-14T05:32:54.122Z,38.50
2023-04-14T05:35:26.965Z,31.42
2023-04-14T05:38:14.446Z,31.52
2023-04-14T05:40:43.343Z,35.33
2023-04-14T05:43:14.386Z,34.80
2023-04-14T05:45:43.638Z,33.15
2023-04-14T05:48:38.920Z,26.13
2023-04-14T05:51:08.621Z,34.20
2023-04-14T05:53:39.482Z,26.40
2023-04-14T05:56:11.714Z,34.53
2023-04-14T05:58:42.322Z,28.30
2023-04-14T06:01:12.359Z,37.17
2023-04-14T06:03:41.762Z,35.50
2023-04-14T06:06:27.038Z,24.48
2023-04-14T06:08:57.894Z,32.28
2023-04-14T06:11:27.690Z,24.98
2023-04-14T06:14:02.270Z,21.60
2023-04-14T06:16:31.483Z,22.67
2023-04-14T06:19:00.673Z,27.95
2023-04-14T06:21:31.886Z,24.08
2023-04-14T06:24:02.262Z,18.38
2023-04-14T06:26:31.776Z,18.05
2023-04-14T06:29:00.840Z,16.52
2023-04-14T06:31:30.390Z,19.48
2023-04-14T06:34:01.837Z,29.15
2023-04-14T06:36:34.096Z,19.90
2023-04-14T06:39:05.339Z,19.13
2023-04-14T06:41:34.639Z,19.75
2023-04-14T06:44:03.926Z,14.65
2023-04-14T06:46:36.586Z,17.33
2023-04-14T06:49:05.218Z,14.40
2023-04-14T06:51:36.048Z,19.67
2023-04-14T06:54:09.147Z,16.08
2023-04-14T06:56:40.075Z,20.33
2023-04-14T06:59:08.584Z,20.80
2023-04-14T07:01:37.332Z,14.90
2023-04-14T07:04:08.393Z,20.52
2023-04-14T07:06:37.867Z,16.15
2023-04-14T07:09:10.228Z,20.58
2023-04-14T07:11:40.564Z,17.70
2023-04-14T07:14:08.958Z,15.77
2023-04-14T07:16:37.930Z,15.85
2023-04-14T07:19:07.519Z,13.70
2023-04-14T07:21:38.415Z,20.13
2023-04-14T07:24:09.742Z,21.60
2023-04-14T07:26:39.812Z,27.85
2023-04-14T07:29:08.656Z,16.73
2023-04-14T07:31:38.288Z,14.98
2023-04-14T07:34:08.073Z,14.80
2023-04-14T07:36:36.737Z,14.77
2023-04-14T07:39:07.266Z,19.25
2023-04-14T07:41:38.579Z,16.13
2023-04-14T07:44:08.697Z,18.05
2023-04-14T07:46:38.278Z,17.20
2023-04-14T07:49:10.506Z,19.05
2023-04-14T07:51:39.473Z,23.00
2023-04-14T07:54:11.425Z,20.80
2023-04-14T07:56:40.122Z,12.73
2023-04-14T07:59:09.017Z,17.02
2023-04-14T08:01:39.555Z,18.38
2023-04-14T08:04:09.173Z,14.18
2023-04-14T08:06:43.407Z,18.92
2023-04-14T08:09:16.573Z,18.30
2023-04-14T08:11:45.038Z,14.23
2023-04-14T08:14:15.765Z,13.38
2023-04-14T08:16:44.918Z,17.58
2023-04-14T08:19:14.787Z,13.25
2023-04-14T08:21:45.003Z,17.88
2023-04-14T08:24:16.942Z,12.90
2023-04-14T08:26:45.952Z,15.15
2023-04-14T08:29:15.860Z,12.98
2023-04-14T08:31:46.621Z,12.55
2023-04-14T08:34:21.638Z,14.30
2023-04-14T08:37:00.353Z,16.88
2023-04-14T08:39:30.650Z,17.92
2023-04-14T08:41:59.828Z,16.23
2023-04-14T08:44:30.524Z,8.68
2023-04-14T08:47:00.645Z,17.30
2023-04-14T08:49:41.181Z,11.82
2023-04-14T08:52:14.525Z,17.33
2023-04-14T08:54:52.056Z,12.77
2023-04-14T08:57:23.753Z,12.52
2023-04-14T09:00:00.350Z,9.63
2023-04-14T09:02:32.688Z,13.82
2023-04-14T09:05:02.401Z,10.93
2023-04-14T09:07:33.731Z,12.95
2023-04-14T09:10:05.352Z,8.13
2023-04-14T09:12:39.064Z,9.85
2023-04-14T09:17:44.810Z,18.85
2023-04-14T09:20:37.658Z,8.30
2023-04-14T09:23:07.313Z,10.32
2023-04-14T09:25:40.898Z,8.30
2023-04-14T09:28:10.300Z,6.15
2023-04-14T09:30:40.685Z,10.02
2023-04-14T09:33:23.178Z,8.27
2023-04-14T09:35:53.798Z,12.00
2023-04-14T09:38:35.636Z,8.25
2023-04-14T09:41:08.934Z,6.22
2023-04-14T09:43:40.935Z,8.30
2023-04-14T09:46:11.790Z,9.38
2023-04-14T09:48:54.287Z,5.85
2023-04-14T09:51:42.599Z,7.18
2023-04-14T09:54:13.078Z,11.40
2023-04-14T09:56:51.639Z,7.75
2023-04-14T09:59:48.180Z,8.75
2023-04-14T10:02:17.290Z,6.93
2023-04-14T10:04:48.243Z,9.13
2023-04-14T10:07:23.894Z,9.20
2023-04-14T10:09:53.936Z,8.30
2023-04-14T10:12:24.716Z,7.20
2023-04-14T10:14:54.138Z,7.15
2023-04-14T10:17:23.701Z,12.63
2023-04-14T10:19:53.071Z,9.50
2023-04-14T10:22:27.940Z,6.22
2023-04-14T10:24:58.541Z,7.60
2023-04-14T10:27:32.586Z,9.88
2023-04-14T10:30:02.399Z,10.63
2023-04-14T10:32:37.158Z,7.07
2023-04-14T10:35:13.937Z,7.60
2023-04-14T10:37:53.038Z,7.55
2023-04-14T10:40:23.219Z,7.13
2023-04-14T10:43:00.253Z,6.75
2023-04-14T10:45:30.581Z,7.85
2023-04-14T10:48:01.021Z,7.32
2023-04-14T10:50:32.229Z,5.97
2023-04-14T10:53:10.165Z,6.88
2023-04-14T10:56:02.995Z,7.57
2023-04-14T10:58:38.043Z,13.30
2023-04-14T11:01:27.856Z,7.30
2023-04-14T11:03:58.370Z,5.88
2023-04-14T11:06:57.365Z,6.47
2023-04-14T11:09:37.218Z,9.77
2023-04-14T11:12:26.128Z,8.13
2023-04-14T11:15:03.909Z,6.57
2023-04-14T11:17:34.229Z,8.82
2023-04-14T11:20:20.629Z,7.35
2023-04-14T11:22:51.868Z,6.35
2023-04-14T11:25:24.724Z,7.30
2023-04-14T11:27:54.220Z,5.40
2023-04-14T11:30:24.540Z,8.93
2023-04-14T11:32:58.796Z,5.90
2023-04-14T11:35:33.360Z,4.40
2023-04-14T11:38:08.061Z,7.03
2023-04-14T11:40:37.811Z,8.63
2023-04-14T11:43:14.322Z,7.53
2023-04-14T11:45:47.755Z,5.18
2023-04-14T11:48:19.347Z,6.78
2023-04-14T11:50:52.673Z,6.97
2023-04-14T11:53:22.084Z,5.35
2023-04-14T11:55:54.126Z,4.72
2023-04-14T11:58:25.802Z,6.32
2023-04-14T12:00:58.447Z,3.70
2023-04-14T12:03:30.754Z,4.63
2023-04-14T12:06:01.716Z,5.93
2023-04-14T12:08:34.068Z,7.78
2023-04-14T12:11:16.006Z,6.65
2023-04-14T12:13:46.691Z,8.57
2023-04-14T12:16:18.400Z,5.20
2023-04-14T12:18:49.382Z,8.13
2023-04-14T12:21:20.256Z,6.65
2023-04-14T12:23:50.110Z,8.02
2023-04-14T12:26:20.263Z,9.25
2023-04-14T12:28:58.817Z,8.65
2023-04-14T12:31:33.676Z,4.25
2023-04-14T12:34:08.283Z,10.23
2023-04-14T12:37:48.215Z,10.32
2023-04-14T12:39:32.705Z,7.35
2023-04-14T12:42:02.531Z,9.38
2023-04-14T12:44:31.059Z,8.63
2023-04-14T12:47:02.089Z,6.30
2023-04-14T12:49:32.798Z,6.60
2023-04-14T12:52:04.650Z,5.55
2023-04-14T12:54:56.578Z,5.22
2023-04-14T12:57:28.388Z,5.80
2023-04-14T12:59:57.938Z,4.93
2023-04-14T13:02:30.174Z,9.18
2023-04-14T13:05:04.735Z,12.48
2023-04-14T13:07:33.565Z,7.25
2023-04-14T13:10:06.916Z,6.38
2023-04-14T13:12:36.202Z,4.55
2023-04-14T13:15:07.679Z,8.80
2023-04-14T13:17:37.678Z,5.63
2023-04-14T13:20:08.332Z,6.60
2023-04-14T13:22:36.941Z,6.93
2023-04-14T13:25:07.448Z,5.93
2023-04-14T13:27:37.010Z,7.63
2023-04-14T13:30:10.054Z,5.88
2023-04-14T13:32:40.220Z,7.45
2023-04-14T13:35:09.537Z,13.13
2023-04-14T13:37:38.722Z,9.27
2023-04-14T13:40:13.462Z,7.03
2023-04-14T13:42:42.744Z,9.93
2023-04-14T13:45:12.803Z,6.97
2023-04-14T13:47:44.383Z,10.52
2023-04-14T13:50:13.831Z,9.00
2023-04-14T13:52:42.944Z,8.55
2023-04-14T13:55:12.637Z,7.30
2023-04-14T13:57:43.788Z,4.20
2023-04-14T14:00:17.631Z,5.60
2023-04-14T14:02:49.009Z,8.32
2023-04-14T14:05:20.429Z,2.90
2023-04-14T14:08:02.170Z,5.32
2023-04-14T14:10:34.686Z,7.32
2023-04-14T14:13:03.718Z,3.78
2023-04-14T14:15:33.878Z,4.28
2023-04-14T14:18:08.279Z,3.35
2023-04-14T14:20:36.861Z,6.15
2023-04-14T14:23:05.836Z,7.22
2023-04-14T14:25:37.516Z,5.63
2023-04-14T14:28:09.326Z,3.10
2023-04-14T14:30:38.942Z,7.28
2023-04-14T14:33:09.710Z,4.95
2023-04-14T14:35:39.405Z,5.20
2023-04-14T14:38:10.355Z,5.70
2023-04-14T14:40:40.515Z,4.05
2023-04-14T14:43:09.945Z,6.30
2023-04-14T14:45:40.613Z,4.70
2023-04-14T14:48:11.933Z,3.90
2023-04-14T14:50:40.613Z,3.05
2023-04-14T14:53:09.656Z,4.68
2023-04-14T14:55:44.904Z,3.50
2023-04-14T15:00:44.408Z,4.47
2023-04-14T15:03:14.667Z,4.65
2023-04-14T15:05:47.974Z,4.60
2023-04-14T15:08:18.100Z,5.35
2023-04-14T15:10:47.970Z,3.72
2023-04-14T15:13:16.807Z,3.97
2023-04-14T15:15:47.778Z,3.00
2023-04-14T15:18:18.003Z,4.43
2023-04-14T15:20:48.929Z,6.20
2023-04-14T15:23:17.856Z,3.50
2023-04-14T15:25:51.846Z,5.68
2023-04-14T15:28:22.040Z,5.20
2023-04-14T15:30:51.392Z,5.90
2023-04-14T15:33:25.376Z,7.22
2023-04-14T15:35:57.069Z,4.70
2023-04-14T15:38:27.187Z,4.28
2023-04-14T15:40:57.294Z,4.30
2023-04-14T15:43:29.383Z,6.13
2023-04-14T15:45:59.122Z,5.22
2023-04-14T15:48:32.593Z,6.78
2023-04-14T15:51:01.669Z,5.25
2023-04-14T15:53:32.069Z,8.25
2023-04-14T15:56:02.032Z,6.90
2023-04-14T15:58:30.462Z,4.53
2023-04-14T16:00:59.758Z,3.17
2023-04-14T16:03:32.989Z,4.65
2023-04-14T16:06:07.485Z,7.00
2023-04-14T16:08:40.108Z,7.25
2023-04-14T16:11:17.611Z,7.82
2023-04-14T16:13:47.945Z,6.35
2023-04-14T16:16:17.828Z,10.77
2023-04-14T16:18:50.143Z,6.53
2023-04-14T16:21:22.788Z,5.00
2023-04-14T16:23:51.584Z,14.32
2023-04-14T16:26:20.476Z,8.35
2023-04-14T16:28:53.778Z,4.85
2023-04-14T16:31:25.189Z,7.63
2023-04-14T16:33:56.903Z,9.27
2023-04-14T16:36:26.880Z,4.45
2023-04-14T16:38:56.507Z,6.35
2023-04-14T16:41:28.386Z,6.65
2023-04-14T16:43:57.655Z,8.23
2023-04-14T16:46:26.409Z,5.80
2023-04-14T16:48:56.717Z,7.10
2023-04-14T16:51:30.466Z,6.63
2023-04-14T16:54:01.878Z,6.30
2023-04-14T16:56:36.081Z,4.50
2023-04-14T16:59:07.647Z,7.45
2023-04-14T17:01:38.120Z,3.78
2023-04-14T17:04:08.943Z,6.50
2023-04-14T17:06:41.871Z,8.18
2023-04-14T17:09:11.810Z,4.65
2023-04-14T17:11:42.341Z,6.15
2023-04-14T17:14:12.175Z,6.25
2023-04-14T17:16:43.538Z,7.43
2023-04-14T17:19:14.796Z,7.93
2023-04-14T17:21:46.221Z,8.20
2023-04-14T17:24:16.951Z,7.85
2023-04-14T17:26:46.254Z,9.85
2023-04-14T17:29:16.348Z,6.90
2023-04-14T17:31:46.389Z,5.75
2023-04-14T17:34:18.778Z,6.82
2023-04-14T17:36:50.139Z,6.82
2023-04-14T17:39:27.001Z,3.55
2023-04-14T17:41:58.424Z,7.05
2023-04-14T17:44:36.602Z,6.40
2023-04-14T17:47:13.441Z,8.98
2023-04-14T17:49:44.771Z,7.00
2023-04-14T17:52:14.394Z,9.32
2023-04-14T17:54:43.470Z,12.30
2023-04-14T17:57:15.487Z,7.07
2023-04-14T17:59:45.855Z,5.00
2023-04-14T18:02:16.010Z,8.05
2023-04-14T18:04:48.462Z,8.20
2023-04-14T18:07:17.872Z,7.97
2023-04-14T18:09:47.412Z,9.30
2023-04-14T18:12:17.279Z,6.20
2023-04-14T18:14:46.824Z,6.47
2023-04-14T18:17:18.492Z,9.20
2023-04-14T18:19:48.722Z,8.88
2023-04-14T18:22:25.242Z,7.22
2023-04-14T18:25:00.881Z,8.88
2023-04-14T18:30:17.251Z,8.27
2023-04-14T18:32:48.490Z,8.23
2023-04-14T18:35:24.901Z,9.27
2023-04-14T18:37:56.506Z,9.88
2023-04-14T18:40:29.085Z,10.32
2023-04-14T18:43:04.351Z,7.53
2023-04-14T18:48:06.407Z,7.57
2023-04-14T18:50:42.991Z,10.63
2023-04-14T18:53:14.127Z,11.93
2023-04-14T18:55:49.547Z,7.60
2023-04-14T18:58:20.921Z,7.00
2023-04-14T19:00:53.161Z,13.05
2023-04-14T19:03:28.562Z,14.77
2023-04-14T19:06:07.593Z,15.82
2023-04-14T19:08:52.229Z,13.07
2023-04-14T19:11:34.705Z,19.85
2023-04-14T19:14:19.701Z,10.85
2023-04-14T19:16:54.907Z,10.55
2023-04-14T19:19:26.001Z,9.73
2023-04-14T19:22:11.021Z,10.63
2023-04-14T19:24:45.857Z,9.93
2023-04-14T19:27:18.113Z,12.13
2023-04-14T19:29:59.187Z,11.02
2023-04-14T19:32:31.927Z,7.65
2023-04-14T19:35:01.069Z,11.07
2023-04-14T19:37:34.668Z,11.95
2023-04-14T19:40:06.341Z,6.72
2023-04-14T19:42:37.805Z,8.68
2023-04-14T19:45:10.497Z,7.57
2023-04-14T19:47:40.459Z,11.73
2023-04-14T19:50:11.678Z,8.63
2023-04-14T19:52:44.491Z,9.10
2023-04-14T19:55:16.367Z,8.65
2023-04-14T19:57:46.060Z,7.82
2023-04-14T20:00:29.384Z,8.50
2023-04-14T20:02:59.901Z,9.60
2023-04-14T20:05:29.943Z,9.43
2023-04-14T20:08:02.112Z,8.25
2023-04-14T20:10:32.284Z,10.75
2023-04-14T20:13:05.531Z,11.50
2023-04-14T20:15:36.140Z,10.18
2023-04-14T20:18:05.998Z,10.15
2023-04-14T20:20:35.873Z,10.68
2023-04-14T20:23:12.367Z,8.60
2023-04-14T20:25:43.920Z,9.15
2023-04-14T20:28:16.879Z,11.10
2023-04-14T20:30:48.462Z,9.88
2023-04-14T20:33:18.872Z,11.32
2023-04-14T20:35:51.477Z,12.50
2023-04-14T20:38:22.613Z,12.80
2023-04-14T20:40:52.878Z,12.50
2023-04-14T20:43:25.842Z,10.48
2023-04-14T20:45:56.468Z,15.75
2023-04-14T20:48:30.586Z,9.02
2023-04-14T20:50:59.901Z,22.30
2023-04-14T20:53:31.491Z,12.40
2023-04-14T20:56:00.626Z,11.68
2023-04-14T20:58:30.890Z,15.63
2023-04-14T21:01:02.136Z,15.13
2023-04-14T21:03:35.054Z,14.98
2023-04-14T21:06:06.092Z,14.68
2023-04-14T21:08:46.172Z,11.98
2023-04-14T21:11:18.532Z,15.00
2023-04-14T21:15:42.362Z,12.85
2023-04-14T21:16:40.653Z,12.38
2023-04-14T21:19:10.357Z,10.15
2023-04-14T21:21:40.162Z,12.55
2023-04-14T21:24:12.020Z,17.85
2023-04-14T21:26:42.582Z,17.60
2023-04-14T21:29:13.076Z,30.67
2023-04-14T21:31:45.536Z,36.78
2023-04-14T21:34:14.721Z,16.75
2023-04-14T21:36:44.564Z,18.88
2023-04-14T21:39:15.146Z,11.70
2023-04-14T21:41:46.440Z,14.85
2023-04-14T21:44:16.792Z,17.80
2023-04-14T21:46:47.040Z,13.35
2023-04-14T21:49:17.793Z,13.35
2023-04-14T21:51:48.124Z,10.63
2023-04-14T21:54:21.065Z,12.15
2023-04-14T21:56:52.398Z,19.60
2023-04-14T21:59:23.739Z,15.52
2023-04-14T22:01:52.878Z,10.93
2023-04-14T22:04:35.147Z,17.33
2023-04-14T22:07:06.772Z,13.80
2023-04-14T22:09:37.633Z,11.93
2023-04-14T22:12:09.417Z,19.08
2023-04-14T22:14:39.586Z,15.98
2023-04-14T22:17:09.382Z,15.27
2023-04-14T22:19:38.289Z,13.00
2023-04-14T22:22:07.721Z,13.02
2023-04-14T22:24:39.695Z,12.13
2023-04-14T22:27:35.669Z,11.57
2023-04-14T22:30:10.434Z,12.75
2023-04-14T22:32:39.646Z,15.32
2023-04-14T22:35:10.448Z,11.57
2023-04-14T22:37:41.813Z,14.73
2023-04-14T22:40:14.089Z,19.95
2023-04-14T22:42:45.427Z,8.15
2023-04-14T22:45:14.612Z,15.00
2023-04-14T22:47:43.716Z,12.93
2023-04-14T22:50:13.498Z,18.08
2023-04-14T22:52:45.420Z,19.80
2023-04-14T22:55:15.999Z,15.90
2023-04-14T22:57:46.496Z,10.38
2023-04-14T23:00:17.424Z,10.95
2023-04-14T23:02:48.148Z,16.67
2023-04-14T23:05:19.354Z,16.77
2023-04-14T23:07:51.694Z,14.52
2023-04-14T23:10:22.555Z,10.55
2023-04-14T23:12:52.191Z,15.50
2023-04-14T23:15:22.271Z,15.55
2023-04-14T23:17:51.910Z,14.75
2023-04-14T23:20:21.203Z,12.63
2023-04-14T23:22:51.058Z,11.93
2023-04-14T23:25:20.933Z,15.70
2023-04-14T23:27:51.864Z,15.15
2023-04-14T23:30:22.566Z,13.10
2023-04-14T23:32:52.081Z,15.52
2023-04-14T23:35:22.236Z,17.38
2023-04-14T23:37:53.008Z,12.38
2023-04-14T23:40:23.034Z,12.05
2023-04-14T23:42:56.087Z,15.27
2023-04-14T23:45:26.950Z,14.05
2023-04-14T23:47:59.228Z,11.32
2023-04-14T23:51:00.086Z,13.18
2023-04-14T23:53:18.223Z,19.38
2023-04-14T23:55:50.912Z,10.00
2023-04-14T23:58:26.952Z,13.00
